sensor_id;sensor_type;location;lat;lon;timestamp;pressure;altitude;pressure_sealevel;temperature;humidity
13080;BME280;6606;49.154;9.280;2023-03-21T00:02:32;99915.72;;;10.59;100.00
13080;BME280;6606;49.154;9.280;2023-03-21T00:05:17;99916.13;;;10.49;100.00
13080;BME280;6606;49.154;9.280;2023-03-21T00:08:01;99916.06;;;10.51;100.00
13080;BME280;6606;49.154;9.280;2023-03-21T00:10:43;99907.88;;;10.55;100.00
13080;BME280;6606;49.154;9.280;2023-03-21T00:13:26;99910.53;;;10.55;100.00
13080;BME280;6606;49.154;9.280;2023-03-21T00:16:13;99908.75;;;10.56;100.00
13080;BME280;6606;49.154;9.280;2023-03-21T00:18:56;99912.06;;;10.61;100.00
13080;BME280;6606;49.154;9.280;2023-03-21T00:21:38;99908.38;;;10.64;100.00
13080;BME280;6606;49.154;9.280;2023-03-21T00:24:24;99899.50;;;10.65;100.00
13080;BME280;6606;49.154;9.280;2023-03-21T00:27:06;99896.50;;;10.53;100.00
13080;BME280;6606;49.154;9.280;2023-03-21T00:29:48;99903.06;;;10.45;100.00
13080;BME280;6606;49.154;9.280;2023-03-21T00:32:31;99900.50;;;10.43;100.00
13080;BME280;6606;49.154;9.280;2023-03-21T00:35:13;99901.41;;;10.42;100.00
13080;BME280;6606;49.154;9.280;2023-03-21T00:37:55;99890.06;;;10.40;100.00
13080;BME280;6606;49.154;9.280;2023-03-21T00:40:39;99897.22;;;10.38;100.00
13080;BME280;6606;49.154;9.280;2023-03-21T00:43:23;99889.91;;;10.43;100.00
13080;BME280;6606;49.154;9.280;2023-03-21T00:46:09;99885.16;;;10.50;100.00
13080;BME280;6606;49.154;9.280;2023-03-21T00:48:53;99878.06;;;10.50;100.00
13080;BME280;6606;49.154;9.280;2023-03-21T00:51:35;99874.56;;;10.50;100.00
13080;BME280;6606;49.154;9.280;2023-03-21T00:54:19;99875.56;;;10.47;100.00
13080;BME280;6606;49.154;9.280;2023-03-21T00:57:06;99871.16;;;10.48;100.00
13080;BME280;6606;49.154;9.280;2023-03-21T00:59:48;99864.22;;;10.45;100.00
13080;BME280;6606;49.154;9.280;2023-03-21T01:02:30;99860.81;;;10.42;100.00
13080;BME280;6606;49.154;9.280;2023-03-21T01:05:12;99863.06;;;10.32;100.00
13080;BME280;6606;49.154;9.280;2023-03-21T01:08:15;99858.53;;;10.34;100.00
13080;BME280;6606;49.154;9.280;2023-03-21T01:11:01;99865.25;;;10.41;100.00
13080;BME280;6606;49.154;9.280;2023-03-21T01:13:45;99865.25;;;10.41;100.00
13080;BME280;6606;49.154;9.280;2023-03-21T01:16:28;99854.66;;;10.41;100.00
13080;BME280;6606;49.154;9.280;2023-03-21T01:19:12;99856.66;;;10.36;100.00
13080;BME280;6606;49.154;9.280;2023-03-21T01:21:54;99858.38;;;10.37;100.00
13080;BME280;6606;49.154;9.280;2023-03-21T01:24:38;99854.06;;;10.34;100.00
13080;BME280;6606;49.154;9.280;2023-03-21T01:27:20;99848.88;;;10.33;100.00
13080;BME280;6606;49.154;9.280;2023-03-21T01:30:05;99847.94;;;10.34;100.00
13080;BME280;6606;49.154;9.280;2023-03-21T01:32:47;99840.78;;;10.36;100.00
13080;BME280;6606;49.154;9.280;2023-03-21T01:35:31;99846.06;;;10.36;100.00
13080;BME280;6606;49.154;9.280;2023-03-21T01:38:13;99842.47;;;10.37;100.00
13080;BME280;6606;49.154;9.280;2023-03-21T01:40:59;99832.88;;;10.34;100.00
13080;BME280;6606;49.154;9.280;2023-03-21T01:43:48;99837.47;;;10.31;100.00
13080;BME280;6606;49.154;9.280;2023-03-21T01:46:39;99832.31;;;10.28;100.00
13080;BME280;6606;49.154;9.280;2023-03-21T01:49:41;99830.84;;;10.21;100.00
13080;BME280;6606;49.154;9.280;2023-03-21T01:52:39;99825.56;;;10.21;100.00
13080;BME280;6606;49.154;9.280;2023-03-21T01:55:26;99829.16;;;10.20;100.00
13080;BME280;6606;49.154;9.280;2023-03-21T01:58:16;99833.84;;;10.13;100.00
13080;BME280;6606;49.154;9.280;2023-03-21T02:01:17;99831.16;;;10.15;100.00
13080;BME280;6606;49.154;9.280;2023-03-21T02:04:07;99829.00;;;10.04;100.00
13080;BME280;6606;49.154;9.280;2023-03-21T02:07:11;99830.53;;;10.08;100.00
13080;BME280;6606;49.154;9.280;2023-03-21T02:10:12;99822.56;;;10.09;100.00
13080;BME280;6606;49.154;9.280;2023-03-21T02:13:00;99814.81;;;10.05;100.00
13080;BME280;6606;49.154;9.280;2023-03-21T02:15:57;99813.94;;;10.04;100.00
13080;BME280;6606;49.154;9.280;2023-03-21T02:18:54;99813.25;;;10.01;100.00
13080;BME280;6606;49.154;9.280;2023-03-21T02:21:57;99814.09;;;10.01;100.00
13080;BME280;6606;49.154;9.280;2023-03-21T02:28:22;99808.16;;;9.96;100.00
13080;BME280;6606;49.154;9.280;2023-03-21T02:31:17;99812.66;;;9.94;100.00
13080;BME280;6606;49.154;9.280;2023-03-21T02:34:40;99813.66;;;9.91;100.00
13080;BME280;6606;49.154;9.280;2023-03-21T02:37:31;99812.75;;;9.93;100.00
13080;BME280;6606;49.154;9.280;2023-03-21T02:40:21;99808.22;;;9.95;100.00
13080;BME280;6606;49.154;9.280;2023-03-21T02:43:08;99808.34;;;9.91;100.00
13080;BME280;6606;49.154;9.280;2023-03-21T02:45:53;99800.50;;;9.90;100.00
13080;BME280;6606;49.154;9.280;2023-03-21T02:48:42;99803.91;;;9.92;100.00
13080;BME280;6606;49.154;9.280;2023-03-21T02:51:28;99801.56;;;9.86;100.00
13080;BME280;6606;49.154;9.280;2023-03-21T02:54:15;99789.91;;;9.90;100.00
13080;BME280;6606;49.154;9.280;2023-03-21T02:56:59;99796.75;;;9.94;100.00
13080;BME280;6606;49.154;9.280;2023-03-21T02:59:44;99794.84;;;9.98;100.00
13080;BME280;6606;49.154;9.280;2023-03-21T03:02:30;99802.06;;;9.94;100.00
13080;BME280;6606;49.154;9.280;2023-03-21T03:05:15;99794.56;;;9.85;100.00
13080;BME280;6606;49.154;9.280;2023-03-21T03:11:15;99801.25;;;9.92;100.00
13080;BME280;6606;49.154;9.280;2023-03-21T03:14:14;99795.59;;;9.81;100.00
13080;BME280;6606;49.154;9.280;2023-03-21T03:17:12;99797.06;;;9.88;100.00
13080;BME280;6606;49.154;9.280;2023-03-21T03:20:09;99791.63;;;9.91;100.00
13080;BME280;6606;49.154;9.280;2023-03-21T03:23:04;99789.13;;;9.88;100.00
13080;BME280;6606;49.154;9.280;2023-03-21T03:25:57;99794.13;;;9.94;100.00
13080;BME280;6606;49.154;9.280;2023-03-21T03:28:48;99790.75;;;9.90;100.00
13080;BME280;6606;49.154;9.280;2023-03-21T03:31:35;99786.47;;;9.88;100.00
13080;BME280;6606;49.154;9.280;2023-03-21T03:34:20;99779.56;;;9.84;100.00
13080;BME280;6606;49.154;9.280;2023-03-21T03:37:04;99781.31;;;9.85;100.00
13080;BME280;6606;49.154;9.280;2023-03-21T03:39:52;99778.88;;;9.80;100.00
13080;BME280;6606;49.154;9.280;2023-03-21T03:42:41;99780.00;;;9.75;100.00
13080;BME280;6606;49.154;9.280;2023-03-21T03:45:38;99780.81;;;9.77;100.00
13080;BME280;6606;49.154;9.280;2023-03-21T03:48:23;99783.44;;;9.77;100.00
13080;BME280;6606;49.154;9.280;2023-03-21T03:51:14;99780.81;;;9.77;100.00
13080;BME280;6606;49.154;9.280;2023-03-21T03:54:18;99785.44;;;9.72;100.00
13080;BME280;6606;49.154;9.280;2023-03-21T03:57:03;99783.31;;;9.80;100.00
13080;BME280;6606;49.154;9.280;2023-03-21T03:59:46;99787.75;;;9.79;100.00
13080;BME280;6606;49.154;9.280;2023-03-21T04:02:59;99776.56;;;9.73;100.00
13080;BME280;6606;49.154;9.280;2023-03-21T04:05:41;99779.41;;;9.68;100.00
13080;BME280;6606;49.154;9.280;2023-03-21T04:08:27;99782.94;;;9.68;100.00
13080;BME280;6606;49.154;9.280;2023-03-21T04:11:12;99776.56;;;9.73;100.00
13080;BME280;6606;49.154;9.280;2023-03-21T04:13:58;99778.28;;;9.74;100.00
13080;BME280;6606;49.154;9.280;2023-03-21T04:16:41;99772.97;;;9.74;100.00
13080;BME280;6606;49.154;9.280;2023-03-21T04:19:24;99782.06;;;9.68;100.00
13080;BME280;6606;49.154;9.280;2023-03-21T04:22:06;99780.41;;;9.65;100.00
13080;BME280;6606;49.154;9.280;2023-03-21T04:24:53;99780.28;;;9.68;100.00
13080;BME280;6606;49.154;9.280;2023-03-21T04:27:38;99776.84;;;9.66;100.00
13080;BME280;6606;49.154;9.280;2023-03-21T04:30:40;99778.56;;;9.67;100.00
13080;BME280;6606;49.154;9.280;2023-03-21T04:33:29;99773.34;;;9.66;100.00
13080;BME280;6606;49.154;9.280;2023-03-21T04:36:13;99775.06;;;9.67;100.00
13080;BME280;6606;49.154;9.280;2023-03-21T04:39:06;99780.16;;;9.72;100.00
13080;BME280;6606;49.154;9.280;2023-03-21T04:41:51;99769.41;;;9.75;100.00
13080;BME280;6606;49.154;9.280;2023-03-21T04:44:33;99776.41;;;9.76;100.00
13080;BME280;6606;49.154;9.280;2023-03-21T04:47:16;99771.13;;;9.76;100.00
13080;BME280;6606;49.154;9.280;2023-03-21T04:50:00;99771.91;;;9.78;100.00
13080;BME280;6606;49.154;9.280;2023-03-21T04:52:43;99765.28;;;9.69;100.00
13080;BME280;6606;49.154;9.280;2023-03-21T04:55:25;99762.75;;;9.66;100.00
13080;BME280;6606;49.154;9.280;2023-03-21T04:58:09;99766.50;;;9.60;100.00
13080;BME280;6606;49.154;9.280;2023-03-21T05:00:51;99757.81;;;9.58;100.00
13080;BME280;6606;49.154;9.280;2023-03-21T05:03:36;99753.28;;;9.60;100.00
13080;BME280;6606;49.154;9.280;2023-03-21T05:06:19;99757.97;;;9.55;100.00
13080;BME280;6606;49.154;9.280;2023-03-21T05:09:05;99748.38;;;9.53;100.00
13080;BME280;6606;49.154;9.280;2023-03-21T05:11:48;99758.06;;;9.52;100.00
13080;BME280;6606;49.154;9.280;2023-03-21T05:14:31;99760.50;;;9.57;100.00
13080;BME280;6606;49.154;9.280;2023-03-21T05:17:13;99754.38;;;9.56;100.00
13080;BME280;6606;49.154;9.280;2023-03-21T05:20:05;99755.16;;;9.58;100.00
13080;BME280;6606;49.154;9.280;2023-03-21T05:22:49;99758.56;;;9.60;100.00
13080;BME280;6606;49.154;9.280;2023-03-21T05:25:34;99760.06;;;9.47;100.00
13080;BME280;6606;49.154;9.280;2023-03-21T05:28:30;99757.31;;;9.50;100.00
13080;BME280;6606;49.154;9.280;2023-03-21T05:31:16;99751.72;;;9.56;100.00
13080;BME280;6606;49.154;9.280;2023-03-21T05:34:01;99754.22;;;9.59;100.00
13080;BME280;6606;49.154;9.280;2023-03-21T05:36:43;99757.47;;;9.66;100.00
13080;BME280;6606;49.154;9.280;2023-03-21T05:39:25;99752.25;;;9.64;100.00
13080;BME280;6606;49.154;9.280;2023-03-21T05:42:19;99762.38;;;9.74;100.00
13080;BME280;6606;49.154;9.280;2023-03-21T05:45:06;99755.91;;;9.81;100.00
13080;BME280;6606;49.154;9.280;2023-03-21T05:47:49;99759.69;;;9.94;100.00
13080;BME280;6606;49.154;9.280;2023-03-21T05:50:32;99765.50;;;10.02;100.00
13080;BME280;6606;49.154;9.280;2023-03-21T05:53:26;99769.72;;;10.06;100.00
13080;BME280;6606;49.154;9.280;2023-03-21T05:56:09;99769.59;;;10.09;100.00
13080;BME280;6606;49.154;9.280;2023-03-21T05:59:01;99763.06;;;10.17;100.00
13080;BME280;6606;49.154;9.280;2023-03-21T06:01:45;99774.97;;;10.27;100.00
13080;BME280;6606;49.154;9.280;2023-03-21T06:04:29;99776.03;;;10.23;100.00
13080;BME280;6606;49.154;9.280;2023-03-21T06:07:11;99771.75;;;10.39;100.00
13080;BME280;6606;49.154;9.280;2023-03-21T06:09:54;99780.47;;;10.41;100.00
13080;BME280;6606;49.154;9.280;2023-03-21T06:12:36;99771.16;;;10.51;100.00
13080;BME280;6606;49.154;9.280;2023-03-21T06:15:24;99779.59;;;10.60;100.00
13080;BME280;6606;49.154;9.280;2023-03-21T06:18:16;99773.97;;;10.66;100.00
13080;BME280;6606;49.154;9.280;2023-03-21T06:21:12;99773.69;;;10.72;100.00
13080;BME280;6606;49.154;9.280;2023-03-21T06:23:56;99773.22;;;10.81;100.00
13080;BME280;6606;49.154;9.280;2023-03-21T06:26:38;99779.81;;;10.91;100.00
13080;BME280;6606;49.154;9.280;2023-03-21T06:29:23;99781.66;;;10.89;100.00
13080;BME280;6606;49.154;9.280;2023-03-21T06:32:07;99779.19;;;11.04;100.00
13080;BME280;6606;49.154;9.280;2023-03-21T06:34:49;99781.59;;;11.08;100.00
13080;BME280;6606;49.154;9.280;2023-03-21T06:37:31;99776.34;;;11.24;100.00
13080;BME280;6606;49.154;9.280;2023-03-21T06:40:13;99776.34;;;11.41;100.00
13080;BME280;6606;49.154;9.280;2023-03-21T06:42:58;99779.19;;;11.38;100.00
13080;BME280;6606;49.154;9.280;2023-03-21T06:45:43;99779.91;;;11.58;100.00
13080;BME280;6606;49.154;9.280;2023-03-21T06:53:18;99775.41;;;11.42;100.00
13080;BME280;6606;49.154;9.280;2023-03-21T06:56:29;99771.00;;;11.59;100.00
13080;BME280;6606;49.154;9.280;2023-03-21T07:00:08;99766.84;;;11.71;100.00
13080;BME280;6606;49.154;9.280;2023-03-21T07:03:24;99769.41;;;11.90;100.00
13080;BME280;6606;49.154;9.280;2023-03-21T07:06:08;99766.53;;;12.10;100.00
13080;BME280;6606;49.154;9.280;2023-03-21T07:09:00;99763.28;;;12.37;100.00
13080;BME280;6606;49.154;9.280;2023-03-21T07:11:46;99772.03;;;12.23;100.00
13080;BME280;6606;49.154;9.280;2023-03-21T07:14:33;99772.28;;;12.50;100.00
13080;BME280;6606;49.154;9.280;2023-03-21T07:17:52;99769.84;;;12.61;100.00
13080;BME280;6606;49.154;9.280;2023-03-21T07:21:22;99772.69;;;12.74;100.00
13080;BME280;6606;49.154;9.280;2023-03-21T07:24:31;99767.63;;;12.69;100.00
13080;BME280;6606;49.154;9.280;2023-03-21T07:35:46;99771.84;;;17.27;100.00
13080;BME280;6606;49.154;9.280;2023-03-21T07:38:28;99764.50;;;18.86;86.24
13080;BME280;6606;49.154;9.280;2023-03-21T07:41:15;99759.31;;;18.74;69.93
13080;BME280;6606;49.154;9.280;2023-03-21T07:43:57;99764.06;;;19.55;72.78
13080;BME280;6606;49.154;9.280;2023-03-21T07:59:17;99750.78;;;21.90;45.16
13080;BME280;6606;49.154;9.280;2023-03-21T08:01:59;99755.50;;;22.44;44.81
13080;BME280;6606;49.154;9.280;2023-03-21T08:04:41;99746.31;;;21.71;47.20
13080;BME280;6606;49.154;9.280;2023-03-21T08:07:23;99750.88;;;19.73;55.22
13080;BME280;6606;49.154;9.280;2023-03-21T08:10:10;99755.28;;;18.13;65.89
13080;BME280;6606;49.154;9.280;2023-03-21T08:12:52;99749.06;;;17.32;76.50
13080;BME280;6606;49.154;9.280;2023-03-21T08:15:35;99753.97;;;16.31;87.87
13080;BME280;6606;49.154;9.280;2023-03-21T08:18:19;99757.59;;;15.80;98.00
13080;BME280;6606;49.154;9.280;2023-03-21T08:21:00;99756.09;;;15.76;100.00
13080;BME280;6606;49.154;9.280;2023-03-21T08:23:42;99753.50;;;15.36;100.00
13080;BME280;6606;49.154;9.280;2023-03-21T08:26:24;99747.69;;;15.04;100.00
13080;BME280;6606;49.154;9.280;2023-03-21T08:29:06;99748.13;;;14.98;100.00
13080;BME280;6606;49.154;9.280;2023-03-21T08:31:49;99751.06;;;14.93;99.24
13080;BME280;6606;49.154;9.280;2023-03-21T08:34:31;99738.03;;;14.89;100.00
13080;BME280;6606;49.154;9.280;2023-03-21T08:37:16;99737.84;;;15.05;100.00
13080;BME280;6606;49.154;9.280;2023-03-21T08:40:09;99740.19;;;14.97;100.00
13080;BME280;6606;49.154;9.280;2023-03-21T08:42:52;99737.13;;;15.15;100.00
13080;BME280;6606;49.154;9.280;2023-03-21T08:45:34;99729.41;;;15.11;96.33
13080;BME280;6606;49.154;9.280;2023-03-21T08:48:18;99727.84;;;15.21;88.78
13080;BME280;6606;49.154;9.280;2023-03-21T08:50:59;99733.22;;;14.81;96.16
13080;BME280;6606;49.154;9.280;2023-03-21T08:53:44;99719.38;;;15.02;86.19
13080;BME280;6606;49.154;9.280;2023-03-21T08:57:23;99727.72;;;15.10;87.86
13080;BME280;6606;49.154;9.280;2023-03-21T09:00:09;99720.50;;;15.25;86.64
13080;BME280;6606;49.154;9.280;2023-03-21T09:02:55;99722.28;;;15.37;78.25
13080;BME280;6606;49.154;9.280;2023-03-21T09:05:39;99726.03;;;15.60;70.73
13080;BME280;6606;49.154;9.280;2023-03-21T09:08:21;99721.03;;;15.81;78.12
13080;BME280;6606;49.154;9.280;2023-03-21T09:11:04;99712.59;;;15.61;80.95
13080;BME280;6606;49.154;9.280;2023-03-21T09:13:45;99712.91;;;15.82;75.66
13080;BME280;6606;49.154;9.280;2023-03-21T09:16:27;99713.81;;;16.07;74.66
13080;BME280;6606;49.154;9.280;2023-03-21T09:19:09;99715.78;;;16.29;79.14
13080;BME280;6606;49.154;9.280;2023-03-21T09:21:52;99719.16;;;16.44;80.71
13080;BME280;6606;49.154;9.280;2023-03-21T09:24:35;99716.41;;;16.33;69.03
13080;BME280;6606;49.154;9.280;2023-03-21T09:27:18;99719.94;;;16.57;68.53
13080;BME280;6606;49.154;9.280;2023-03-21T09:30:02;99721.44;;;16.24;73.20
13080;BME280;6606;49.154;9.280;2023-03-21T09:32:45;99718.13;;;16.34;63.05
13080;BME280;6606;49.154;9.280;2023-03-21T09:35:29;99720.31;;;16.64;65.57
13080;BME280;6606;49.154;9.280;2023-03-21T09:38:12;99716.06;;;17.09;65.86
13080;BME280;6606;49.154;9.280;2023-03-21T09:41:02;99723.75;;;17.25;60.78
13080;BME280;6606;49.154;9.280;2023-03-21T09:43:53;99730.47;;;17.53;54.60
13080;BME280;6606;49.154;9.280;2023-03-21T09:46:42;99724.63;;;17.37;57.64
13080;BME280;6606;49.154;9.280;2023-03-21T09:49:27;99719.75;;;17.31;52.43
13080;BME280;6606;49.154;9.280;2023-03-21T09:52:20;99714.41;;;17.53;51.65
13080;BME280;6606;49.154;9.280;2023-03-21T09:55:08;99716.47;;;17.39;51.72
13080;BME280;6606;49.154;9.280;2023-03-21T09:58:04;99717.31;;;17.62;55.45
13080;BME280;6606;49.154;9.280;2023-03-21T10:00:49;99726.97;;;17.64;55.21
13080;BME280;6606;49.154;9.280;2023-03-21T10:03:33;99719.66;;;17.89;53.67
13080;BME280;6606;49.154;9.280;2023-03-21T10:06:16;99719.78;;;18.21;48.87
13080;BME280;6606;49.154;9.280;2023-03-21T10:09:00;99707.84;;;18.14;49.21
13080;BME280;6606;49.154;9.280;2023-03-21T10:11:49;99705.19;;;18.02;49.62
13080;BME280;6606;49.154;9.280;2023-03-21T10:14:35;99702.47;;;18.14;48.76
13080;BME280;6606;49.154;9.280;2023-03-21T10:17:24;99698.66;;;18.60;52.42
13080;BME280;6606;49.154;9.280;2023-03-21T10:20:15;99694.59;;;18.44;50.35
13080;BME280;6606;49.154;9.280;2023-03-21T10:22:59;99697.25;;;18.56;51.90
13080;BME280;6606;49.154;9.280;2023-03-21T10:30:18;99685.47;;;18.68;47.91
13080;BME280;6606;49.154;9.280;2023-03-21T10:33:03;99678.06;;;18.93;46.00
13080;BME280;6606;49.154;9.280;2023-03-21T10:35:50;99683.44;;;18.17;46.83
13080;BME280;6606;49.154;9.280;2023-03-21T10:38:34;99679.53;;;18.10;49.64
13080;BME280;6606;49.154;9.280;2023-03-21T10:41:16;99673.16;;;18.77;49.29
13080;BME280;6606;49.154;9.280;2023-03-21T10:44:06;99671.81;;;19.13;46.36
13080;BME280;6606;49.154;9.280;2023-03-21T10:46:51;99670.59;;;19.17;45.96
13080;BME280;6606;49.154;9.280;2023-03-21T10:49:35;99674.97;;;18.65;46.10
13080;BME280;6606;49.154;9.280;2023-03-21T10:52:20;99668.25;;;18.82;43.89
13080;BME280;6606;49.154;9.280;2023-03-21T10:55:15;99667.19;;;18.94;46.17
13080;BME280;6606;49.154;9.280;2023-03-21T10:58:00;99680.75;;;18.17;47.70
13080;BME280;6606;49.154;9.280;2023-03-21T11:00:44;99676.03;;;18.53;49.62
13080;BME280;6606;49.154;9.280;2023-03-21T11:03:31;99679.66;;;18.52;47.62
13080;BME280;6606;49.154;9.280;2023-03-21T11:06:22;99673.94;;;18.56;46.25
13080;BME280;6606;49.154;9.280;2023-03-21T11:09:08;99676.81;;;18.32;46.58
13080;BME280;6606;49.154;9.280;2023-03-21T11:11:54;99674.00;;;18.77;49.38
13080;BME280;6606;49.154;9.280;2023-03-21T11:14:43;99669.50;;;18.66;46.34
13080;BME280;6606;49.154;9.280;2023-03-21T11:17:28;99667.31;;;18.93;48.28
13080;BME280;6606;49.154;9.280;2023-03-21T11:20:16;99664.44;;;18.84;49.88
13080;BME280;6606;49.154;9.280;2023-03-21T11:23:01;99665.69;;;19.01;49.60
13080;BME280;6606;49.154;9.280;2023-03-21T11:25:48;99662.41;;;19.19;48.96
13080;BME280;6606;49.154;9.280;2023-03-21T11:28:34;99659.84;;;19.17;48.85
13080;BME280;6606;49.154;9.280;2023-03-21T11:31:17;99662.44;;;18.86;46.11
13080;BME280;6606;49.154;9.280;2023-03-21T11:34:04;99661.59;;;18.54;49.75
13080;BME280;6606;49.154;9.280;2023-03-21T11:36:49;99657.94;;;18.55;51.36
13080;BME280;6606;49.154;9.280;2023-03-21T11:39:34;99652.50;;;19.19;48.55
13080;BME280;6606;49.154;9.280;2023-03-21T11:42:27;99658.59;;;18.68;47.01
13080;BME280;6606;49.154;9.280;2023-03-21T11:45:12;99648.38;;;19.15;47.69
13080;BME280;6606;49.154;9.280;2023-03-21T11:47:55;99645.88;;;19.23;45.75
13080;BME280;6606;49.154;9.280;2023-03-21T11:50:40;99636.38;;;19.19;46.44
13080;BME280;6606;49.154;9.280;2023-03-21T11:53:31;99635.78;;;18.74;50.09
13080;BME280;6606;49.154;9.280;2023-03-21T11:56:22;99632.06;;;19.07;48.59
13080;BME280;6606;49.154;9.280;2023-03-21T11:59:19;99626.38;;;18.79;48.29
13080;BME280;6606;49.154;9.280;2023-03-21T12:02:21;99621.50;;;18.94;51.05
13080;BME280;6606;49.154;9.280;2023-03-21T12:05:12;99618.91;;;18.83;49.14
13080;BME280;6606;49.154;9.280;2023-03-21T12:08:03;99614.94;;;18.45;49.21
13080;BME280;6606;49.154;9.280;2023-03-21T12:10:53;99612.41;;;17.77;52.58
13080;BME280;6606;49.154;9.280;2023-03-21T12:13:49;99606.69;;;17.93;53.96
13080;BME280;6606;49.154;9.280;2023-03-21T12:16:51;99605.97;;;17.69;52.53
13080;BME280;6606;49.154;9.280;2023-03-21T12:19:55;99598.41;;;17.85;52.79
13080;BME280;6606;49.154;9.280;2023-03-21T12:22:54;99596.84;;;18.15;52.34
13080;BME280;6606;49.154;9.280;2023-03-21T12:25:45;99596.56;;;18.29;56.20
13080;BME280;6606;49.154;9.280;2023-03-21T12:28:37;99583.31;;;18.49;53.98
13080;BME280;6606;49.154;9.280;2023-03-21T12:31:27;99586.88;;;18.91;53.35
13080;BME280;6606;49.154;9.280;2023-03-21T12:34:23;99577.13;;;18.90;51.87
13080;BME280;6606;49.154;9.280;2023-03-21T12:37:17;99578.88;;;18.80;53.27
13080;BME280;6606;49.154;9.280;2023-03-21T12:40:11;99577.22;;;18.46;52.86
13080;BME280;6606;49.154;9.280;2023-03-21T12:43:17;99585.38;;;17.92;58.08
13080;BME280;6606;49.154;9.280;2023-03-21T12:46:09;99585.53;;;17.45;60.79
13080;BME280;6606;49.154;9.280;2023-03-21T12:48:57;99581.25;;;17.43;67.06
13080;BME280;6606;49.154;9.280;2023-03-21T12:51:43;99573.13;;;17.10;69.45
13080;BME280;6606;49.154;9.280;2023-03-21T12:54:30;99564.00;;;17.02;74.39
13080;BME280;6606;49.154;9.280;2023-03-21T12:57:17;99561.88;;;16.83;76.55
13080;BME280;6606;49.154;9.280;2023-03-21T13:00:04;99566.06;;;17.09;79.67
13080;BME280;6606;49.154;9.280;2023-03-21T13:02:57;99569.91;;;16.83;77.91
13080;BME280;6606;49.154;9.280;2023-03-21T13:05:44;99571.16;;;17.01;78.39
13080;BME280;6606;49.154;9.280;2023-03-21T13:08:29;99566.03;;;16.98;79.09
13080;BME280;6606;49.154;9.280;2023-03-21T13:11:14;99561.44;;;17.23;78.03
13080;BME280;6606;49.154;9.280;2023-03-21T13:14:02;99561.56;;;17.10;78.70
13080;BME280;6606;49.154;9.280;2023-03-21T13:16:47;99557.28;;;17.30;78.12
13080;BME280;6606;49.154;9.280;2023-03-21T13:19:37;99552.38;;;17.46;76.20
13080;BME280;6606;49.154;9.280;2023-03-21T13:22:24;99549.25;;;17.19;71.40
13080;BME280;6606;49.154;9.280;2023-03-21T13:25:17;99546.31;;;17.44;73.28
13080;BME280;6606;49.154;9.280;2023-03-21T13:28:00;99542.84;;;17.76;69.57
13080;BME280;6606;49.154;9.280;2023-03-21T13:30:43;99541.44;;;17.49;67.59
13080;BME280;6606;49.154;9.280;2023-03-21T13:33:28;99546.19;;;17.34;66.50
13080;BME280;6606;49.154;9.280;2023-03-21T13:36:15;99540.09;;;17.32;68.94
13080;BME280;6606;49.154;9.280;2023-03-21T13:38:59;99538.50;;;17.52;72.70
13080;BME280;6606;49.154;9.280;2023-03-21T13:41:47;99536.47;;;17.88;68.63
13080;BME280;6606;49.154;9.280;2023-03-21T13:44:37;99536.22;;;17.91;66.17
13080;BME280;6606;49.154;9.280;2023-03-21T13:47:38;99528.53;;;17.54;67.60
13080;BME280;6606;49.154;9.280;2023-03-21T13:50:35;99529.78;;;16.94;71.84
13080;BME280;6606;49.154;9.280;2023-03-21T13:53:21;99526.34;;;17.14;72.05
13080;BME280;6606;49.154;9.280;2023-03-21T13:59:09;99518.09;;;16.95;76.30
13080;BME280;6606;49.154;9.280;2023-03-21T14:01:58;99519.78;;;17.41;75.62
13080;BME280;6606;49.154;9.280;2023-03-21T14:04:41;99506.91;;;17.12;78.25
13080;BME280;6606;49.154;9.280;2023-03-21T14:07:26;99512.75;;;16.95;77.04
13080;BME280;6606;49.154;9.280;2023-03-21T14:10:18;99496.06;;;17.25;72.18
13080;BME280;6606;49.154;9.280;2023-03-21T14:13:02;99504.97;;;16.92;74.18
13080;BME280;6606;49.154;9.280;2023-03-21T14:15:47;99502.28;;;16.81;77.00
13080;BME280;6606;49.154;9.280;2023-03-21T14:18:29;99498.38;;;16.85;78.13
13080;BME280;6606;49.154;9.280;2023-03-21T14:21:16;99496.75;;;16.71;78.99
13080;BME280;6606;49.154;9.280;2023-03-21T14:24:01;99496.19;;;17.12;77.09
13080;BME280;6606;49.154;9.280;2023-03-21T14:26:49;99493.97;;;17.06;77.97
13080;BME280;6606;49.154;9.280;2023-03-21T14:29:33;99492.03;;;17.20;76.52
13080;BME280;6606;49.154;9.280;2023-03-21T14:32:19;99494.59;;;16.99;76.12
13080;BME280;6606;49.154;9.280;2023-03-21T14:35:03;99497.75;;;17.04;76.18
13080;BME280;6606;49.154;9.280;2023-03-21T14:37:45;99496.44;;;16.98;78.15
13080;BME280;6606;49.154;9.280;2023-03-21T14:40:27;99499.59;;;16.81;77.75
13080;BME280;6606;49.154;9.280;2023-03-21T14:43:11;99503.47;;;16.88;78.04
13080;BME280;6606;49.154;9.280;2023-03-21T14:45:55;99497.84;;;16.68;80.64
13080;BME280;6606;49.154;9.280;2023-03-21T14:48:37;99490.84;;;17.12;80.11
13080;BME280;6606;49.154;9.280;2023-03-21T14:51:28;99491.34;;;17.61;79.58
13080;BME280;6606;49.154;9.280;2023-03-21T14:54:13;99493.44;;;17.46;73.27
13080;BME280;6606;49.154;9.280;2023-03-21T14:56:59;99490.31;;;17.41;76.90
13080;BME280;6606;49.154;9.280;2023-03-21T14:59:46;99484.25;;;17.05;74.70
13080;BME280;6606;49.154;9.280;2023-03-21T15:02:31;99493.66;;;16.88;78.73
13080;BME280;6606;49.154;9.280;2023-03-21T15:05:17;99485.41;;;16.45;78.55
13080;BME280;6606;49.154;9.280;2023-03-21T15:08:02;99486.66;;;16.52;86.74
13080;BME280;6606;49.154;9.280;2023-03-21T15:10:55;99488.97;;;16.57;90.99
13080;BME280;6606;49.154;9.280;2023-03-21T15:13:42;99482.25;;;16.40;83.11
13080;BME280;6606;49.154;9.280;2023-03-21T15:16:28;99477.63;;;16.31;85.08
13080;BME280;6606;49.154;9.280;2023-03-21T15:19:15;99481.19;;;16.07;86.49
13080;BME280;6606;49.154;9.280;2023-03-21T15:22:07;99472.13;;;15.86;91.16
13080;BME280;6606;49.154;9.280;2023-03-21T15:24:55;99470.19;;;15.88;96.00
13080;BME280;6606;49.154;9.280;2023-03-21T15:27:40;99470.41;;;15.85;92.47
13080;BME280;6606;49.154;9.280;2023-03-21T15:30:24;99467.75;;;15.85;93.97
13080;BME280;6606;49.154;9.280;2023-03-21T15:33:09;99479.19;;;15.87;94.08
13080;BME280;6606;49.154;9.280;2023-03-21T15:35:54;99479.44;;;15.95;92.78
13080;BME280;6606;49.154;9.280;2023-03-21T15:38:38;99481.69;;;15.77;95.73